createdAt,value
2019-04-03T00:01:11.972Z,79.10
2019-04-03T00:03:41.972Z,80.10
2019-04-03T00:06:11.929Z,81.00
2019-04-03T00:08:42.421Z,80.40
2019-04-03T00:11:12.593Z,81.10
2019-04-03T00:13:42.609Z,81.60
2019-04-03T00:16:15.695Z,81.20
2019-04-03T00:18:47.628Z,79.10
2019-04-03T00:21:20.311Z,79.50
2019-04-03T00:23:52.294Z,82.10
2019-04-03T00:26:23.627Z,78.80
2019-04-03T00:28:55.941Z,79.00
2019-04-03T00:31:25.948Z,78.80
2019-04-03T00:33:56.017Z,80.60
2019-04-03T00:36:27.206Z,80.00
2019-04-03T00:38:57.186Z,80.20
2019-04-03T00:41:26.780Z,79.70
2019-04-03T00:43:56.686Z,80.70
2019-04-03T00:46:26.316Z,80.50
2019-04-03T00:48:56.557Z,80.50
2019-04-03T00:51:28.025Z,78.50
2019-04-03T00:53:58.165Z,80.00
2019-04-03T00:56:28.033Z,79.90
2019-04-03T00:58:57.844Z,79.10
2019-04-03T01:01:27.834Z,80.30
2019-04-03T01:03:58.837Z,81.70
2019-04-03T01:06:29.421Z,81.90
2019-04-03T01:09:00.133Z,81.00
2019-04-03T01:11:30.527Z,82.70
2019-04-03T01:14:01.830Z,83.40
2019-04-03T01:16:33.083Z,82.10
2019-04-03T01:19:05.217Z,83.60
2019-04-03T01:21:37.429Z,82.40
2019-04-03T01:24:08.311Z,82.00
2019-04-03T01:26:40.200Z,84.00
2019-04-03T01:29:12.606Z,84.10
2019-04-03T01:31:44.374Z,83.80
2019-04-03T01:34:15.617Z,83.50
2019-04-03T01:36:46.527Z,82.30
2019-04-03T01:39:18.941Z,81.50
2019-04-03T01:41:49.660Z,83.40
2019-04-03T01:44:20.857Z,84.40
2019-04-03T01:46:50.960Z,83.70
2019-04-03T01:49:28.038Z,83.50
2019-04-03T01:52:00.263Z,83.80
2019-04-03T01:54:29.410Z,84.50
2019-04-03T01:57:00.221Z,83.40
2019-04-03T01:59:30.244Z,82.70
2019-04-03T02:02:00.046Z,84.50
2019-04-03T02:04:29.861Z,85.50
2019-04-03T02:07:00.102Z,84.50
2019-04-03T02:09:29.811Z,84.70
2019-04-03T02:11:59.744Z,85.10
2019-04-03T02:14:29.830Z,84.70
2019-04-03T02:17:02.986Z,84.10
2019-04-03T02:19:32.862Z,83.60
2019-04-03T02:22:02.803Z,83.70
2019-04-03T02:24:32.794Z,84.40
2019-04-03T02:27:03.427Z,85.30
2019-04-03T02:29:33.248Z,84.60
2019-04-03T02:32:03.149Z,84.30
2019-04-03T02:34:35.497Z,84.00
2019-04-03T02:37:04.810Z,83.40
2019-04-03T02:39:34.792Z,84.20
2019-04-03T02:42:08.075Z,84.90
2019-04-03T02:44:36.443Z,84.30
2019-04-03T02:47:06.364Z,82.80
2019-04-03T02:49:36.183Z,83.70
2019-04-03T02:52:06.377Z,82.90
2019-04-03T02:54:39.481Z,85.70
2019-04-03T02:57:09.383Z,84.60
2019-04-03T02:59:39.318Z,82.10
2019-04-03T03:02:11.635Z,82.30
2019-04-03T03:04:40.635Z,81.70
2019-04-03T03:07:10.701Z,81.70
2019-04-03T03:09:40.882Z,81.60
2019-04-03T03:12:11.336Z,81.40
2019-04-03T03:14:41.261Z,82.30
2019-04-03T03:17:14.603Z,82.00
2019-04-03T03:19:44.761Z,84.50
2019-04-03T03:22:18.058Z,81.30
2019-04-03T03:24:46.791Z,82.40
2019-04-03T03:27:17.920Z,82.30
2019-04-03T03:29:47.859Z,82.00
2019-04-03T03:32:21.962Z,81.20
2019-04-03T03:35:05.069Z,81.70
2019-04-03T03:37:24.292Z,82.50
2019-04-03T03:39:55.446Z,81.10
2019-04-03T03:42:30.117Z,80.30
2019-04-03T03:45:00.043Z,82.50
2019-04-03T03:47:31.988Z,82.30
2019-04-03T03:50:03.475Z,83.10
2019-04-03T03:52:36.682Z,83.20
2019-04-03T03:55:07.454Z,81.60
2019-04-03T03:57:39.779Z,82.20
2019-04-03T04:00:10.135Z,81.60
2019-04-03T04:02:43.804Z,81.20
2019-04-03T04:05:12.286Z,82.20
2019-04-03T04:07:47.785Z,82.50
2019-04-03T04:10:17.786Z,83.00
2019-04-03T04:12:47.624Z,81.10
2019-04-03T04:15:17.439Z,81.00
2019-04-03T04:17:50.038Z,82.80
2019-04-03T04:20:18.713Z,81.00
2019-04-03T04:22:50.994Z,82.00
2019-04-03T04:25:23.033Z,81.50
2019-04-03T04:27:52.727Z,80.60
2019-04-03T04:30:23.039Z,81.50
2019-04-03T04:32:53.164Z,82.00
2019-04-03T04:35:23.000Z,80.70
2019-04-03T04:37:55.411Z,81.10
2019-04-03T04:40:24.257Z,80.10
2019-04-03T04:42:54.567Z,80.70
2019-04-03T04:45:24.300Z,81.10
2019-04-03T04:47:53.970Z,82.30
2019-04-03T04:50:25.359Z,83.10
2019-04-03T04:52:58.075Z,84.80
2019-04-03T04:55:30.556Z,83.00
2019-04-03T04:57:59.739Z,84.20
2019-04-03T05:00:30.315Z,85.50
2019-04-03T05:03:02.500Z,86.90
2019-04-03T05:05:32.435Z,83.00
2019-04-03T05:08:02.667Z,82.20
2019-04-03T05:10:32.911Z,81.90
2019-04-03T05:13:02.898Z,80.90
2019-04-03T05:15:32.604Z,83.10
2019-04-03T05:18:03.788Z,81.30
2019-04-03T05:20:36.306Z,82.20
2019-04-03T05:23:06.250Z,81.10
2019-04-03T05:25:36.545Z,81.30
2019-04-03T05:28:06.643Z,82.50
2019-04-03T05:30:37.810Z,81.10
2019-04-03T05:33:10.605Z,83.30
2019-04-03T05:35:41.756Z,81.40
2019-04-03T05:38:11.803Z,82.00
2019-04-03T05:40:42.019Z,82.50
2019-04-03T05:43:12.014Z,81.90
2019-04-03T05:45:43.868Z,81.80
2019-04-03T05:48:18.226Z,83.70
2019-04-03T05:50:51.651Z,84.10
2019-04-03T05:53:23.592Z,81.60
2019-04-03T05:55:53.949Z,81.70
2019-04-03T05:58:35.555Z,82.20
2019-04-03T06:01:06.938Z,83.20
2019-04-03T06:03:45.740Z,82.10
2019-04-03T06:06:10.453Z,82.50
2019-04-03T06:08:40.057Z,81.50
2019-04-03T06:11:09.920Z,80.30
2019-04-03T06:13:39.915Z,80.30
2019-04-03T06:16:09.762Z,80.30
2019-04-03T06:18:40.834Z,81.40
2019-04-03T06:21:11.053Z,80.30
2019-04-03T06:23:41.280Z,80.20
2019-04-03T06:26:12.241Z,79.90
2019-04-03T06:28:43.282Z,80.80
2019-04-03T06:31:14.286Z,80.10
2019-04-03T06:33:45.766Z,80.20
2019-04-03T06:36:17.534Z,79.60
2019-04-03T06:38:47.822Z,80.20
2019-04-03T06:41:17.712Z,80.60
2019-04-03T06:43:50.212Z,80.40
2019-04-03T06:46:20.249Z,80.60
2019-04-03T06:48:49.924Z,80.60
2019-04-03T06:51:27.173Z,82.80
2019-04-03T06:54:03.586Z,84.90
2019-04-03T06:56:33.699Z,84.60
2019-04-03T06:59:03.510Z,84.20
2019-04-03T07:01:33.322Z,83.70
2019-04-03T07:04:04.490Z,82.30
2019-04-03T07:06:34.903Z,81.00
2019-04-03T07:09:06.741Z,82.50
2019-04-03T07:11:36.606Z,82.20
2019-04-03T07:14:08.272Z,81.00
2019-04-03T07:16:38.952Z,80.90
2019-04-03T07:19:09.036Z,80.40
2019-04-03T07:21:38.970Z,80.50
2019-04-03T07:24:08.836Z,78.70
2019-04-03T07:26:38.628Z,80.60
2019-04-03T07:29:11.293Z,80.10
2019-04-03T07:31:40.827Z,79.20
2019-04-03T07:34:10.723Z,79.60
2019-04-03T07:36:41.416Z,79.90
2019-04-03T07:39:13.037Z,80.30
2019-04-03T07:41:43.128Z,79.30
2019-04-03T07:44:13.213Z,78.90
2019-04-03T07:46:42.992Z,80.20
2019-04-03T07:49:14.198Z,79.60
2019-04-03T07:51:44.749Z,79.40
2019-04-03T07:54:14.931Z,78.80
2019-04-03T07:56:44.791Z,79.60
2019-04-03T07:59:14.629Z,79.80
2019-04-03T08:01:44.487Z,79.30
2019-04-03T08:04:16.104Z,78.70
2019-04-03T08:06:45.768Z,79.80
2019-04-03T08:09:15.892Z,79.00
2019-04-03T08:11:45.929Z,78.70
2019-04-03T08:14:16.035Z,78.30
2019-04-03T08:16:47.991Z,78.00
2019-04-03T08:19:17.935Z,78.30
2019-04-03T08:21:47.696Z,79.20
2019-04-03T08:24:17.684Z,79.30
2019-04-03T08:26:50.506Z,79.80
2019-04-03T08:29:19.865Z,80.40
2019-04-03T08:31:49.893Z,79.80
2019-04-03T08:34:19.650Z,77.70
2019-04-03T08:36:50.808Z,78.70
2019-04-03T08:39:20.830Z,78.20
2019-04-03T08:41:50.433Z,77.80
2019-04-03T08:44:20.321Z,77.60
2019-04-03T08:46:50.424Z,77.50
2019-04-03T08:49:20.672Z,77.40
2019-04-03T08:51:50.369Z,77.30
2019-04-03T08:54:21.664Z,77.30
2019-04-03T08:56:51.824Z,79.20
2019-04-03T08:59:21.832Z,78.20
2019-04-03T09:01:52.186Z,77.70
2019-04-03T09:04:23.471Z,77.40
2019-04-03T09:06:54.186Z,77.50
2019-04-03T09:09:27.004Z,81.30
2019-04-03T09:11:58.007Z,80.90
2019-04-03T09:14:28.139Z,80.30
2019-04-03T09:16:58.211Z,80.40
2019-04-03T09:19:28.307Z,81.10
2019-04-03T09:22:16.957Z,79.70
2019-04-03T09:24:47.177Z,79.20
2019-04-03T09:27:17.192Z,78.50
2019-04-03T09:29:47.112Z,77.90
2019-04-03T09:32:17.440Z,77.80
2019-04-03T09:34:47.507Z,78.00
2019-04-03T09:37:18.353Z,78.30
2019-04-03T09:39:50.872Z,79.80
2019-04-03T09:42:21.332Z,79.30
2019-04-03T09:44:51.917Z,80.90
2019-04-03T09:47:21.872Z,80.20
2019-04-03T09:49:52.092Z,80.70
2019-04-03T09:52:37.424Z,79.90
2019-04-03T09:54:56.399Z,81.30
2019-04-03T09:57:26.787Z,81.80
2019-04-03T09:59:56.985Z,79.90
2019-04-03T10:02:26.930Z,80.40
2019-04-03T10:04:59.273Z,80.10
2019-04-03T10:07:31.199Z,82.30
2019-04-03T10:10:00.596Z,82.40
2019-04-03T10:12:32.322Z,82.40
2019-04-03T10:15:02.760Z,80.60
2019-04-03T10:17:32.523Z,81.20
2019-04-03T10:20:06.905Z,81.60
2019-04-03T10:22:36.778Z,80.70
2019-04-03T10:25:08.201Z,80.60
2019-04-03T10:27:38.402Z,80.20
2019-04-03T10:30:11.020Z,80.60
2019-04-03T10:32:41.454Z,80.70
2019-04-03T10:35:15.402Z,80.60
2019-04-03T10:37:46.916Z,82.10
2019-04-03T10:40:17.749Z,82.10
2019-04-03T10:42:47.636Z,80.10
2019-04-03T10:45:18.266Z,79.20
2019-04-03T10:47:48.595Z,78.40
2019-04-03T10:50:18.578Z,80.00
2019-04-03T10:52:49.340Z,79.90
2019-04-03T10:55:19.227Z,79.70
2019-04-03T10:57:50.867Z,79.70
2019-04-03T11:00:23.506Z,81.50
2019-04-03T11:02:53.040Z,81.30
2019-04-03T11:05:27.107Z,81.50
2019-04-03T11:08:01.562Z,79.70
2019-04-03T11:10:34.757Z,79.30
2019-04-03T11:13:04.725Z,79.80
2019-04-03T11:15:35.118Z,79.30
2019-04-03T11:18:08.471Z,80.80
2019-04-03T11:20:40.311Z,80.50
2019-04-03T11:23:11.196Z,82.50
2019-04-03T11:25:42.174Z,83.40
2019-04-03T11:28:12.417Z,82.50
2019-04-03T11:30:43.622Z,80.80
2019-04-03T11:33:13.977Z,82.90
2019-04-03T11:35:44.305Z,82.10
2019-04-03T11:38:23.699Z,81.60
2019-04-03T11:40:47.615Z,79.20
2019-04-03T11:43:20.105Z,82.70
2019-04-03T11:45:49.611Z,82.90
2019-04-03T11:48:19.468Z,80.40
2019-04-03T11:50:49.980Z,79.50
2019-04-03T11:53:21.631Z,82.00
2019-04-03T11:55:51.975Z,83.80
2019-04-03T11:58:23.577Z,83.40
2019-04-03T12:00:53.821Z,81.60
2019-04-03T12:03:23.572Z,77.90
2019-04-03T12:05:54.128Z,77.50
2019-04-03T12:08:24.080Z,79.40
2019-04-03T12:10:54.010Z,81.60
2019-04-03T12:13:23.809Z,80.00
2019-04-03T12:15:56.200Z,80.80
2019-04-03T12:18:26.238Z,83.40
2019-04-03T12:20:55.913Z,83.20
2019-04-03T12:23:26.774Z,81.60
2019-04-03T12:25:58.120Z,83.20
2019-04-03T12:28:27.811Z,81.80
2019-04-03T12:30:58.239Z,81.90
2019-04-03T12:33:27.875Z,82.60
2019-04-03T12:35:57.567Z,81.10
2019-04-03T12:38:27.687Z,81.80
2019-04-03T12:40:58.046Z,82.50
2019-04-03T12:43:27.894Z,80.60
2019-04-03T12:45:58.835Z,84.10
2019-04-03T12:48:29.293Z,81.20
2019-04-03T12:51:00.172Z,84.00
2019-04-03T12:53:31.719Z,85.00
2019-04-03T12:56:01.944Z,81.10
2019-04-03T12:58:32.213Z,82.80
2019-04-03T13:01:03.467Z,82.30
2019-04-03T13:03:36.208Z,81.20
2019-04-03T13:06:08.963Z,80.80
2019-04-03T13:08:36.893Z,81.50
2019-04-03T13:11:06.549Z,81.10
2019-04-03T13:13:38.413Z,82.40
2019-04-03T13:16:10.282Z,81.50
2019-04-03T13:18:39.620Z,80.70
2019-04-03T13:21:09.972Z,81.10
2019-04-03T13:23:41.096Z,83.80
2019-04-03T13:26:11.200Z,79.90
2019-04-03T13:28:42.136Z,82.10
2019-04-03T13:31:12.933Z,83.40
2019-04-03T13:33:43.685Z,82.40
2019-04-03T13:36:13.725Z,79.60
2019-04-03T13:38:43.857Z,81.10
2019-04-03T13:41:14.796Z,81.40
2019-04-03T13:43:44.989Z,83.70
2019-04-03T13:46:15.514Z,81.60
2019-04-03T13:48:45.797Z,83.20
2019-04-03T13:51:16.055Z,82.20
2019-04-03T13:53:47.108Z,82.10
2019-04-03T13:56:17.270Z,83.70
2019-04-03T13:58:47.666Z,84.10
2019-04-03T14:01:19.044Z,83.00
2019-04-03T14:03:50.504Z,81.50
2019-04-03T14:06:22.959Z,81.00
2019-04-03T14:08:53.371Z,80.70
2019-04-03T14:11:23.301Z,79.50
2019-04-03T14:13:53.208Z,81.20
2019-04-03T14:16:23.571Z,80.20
2019-04-03T14:18:53.341Z,88.90
2019-04-03T14:21:23.298Z,86.50
2019-04-03T14:23:53.769Z,83.50
2019-04-03T14:26:23.538Z,82.00
2019-04-03T14:28:53.870Z,84.80
2019-04-03T14:31:34.832Z,81.40
2019-04-03T14:33:57.800Z,79.80
2019-04-03T14:36:27.919Z,78.80
2019-04-03T14:38:58.279Z,78.20
2019-04-03T14:41:28.080Z,78.10
2019-04-03T14:43:58.030Z,77.70
2019-04-03T14:46:28.135Z,77.60
2019-04-03T14:48:59.636Z,77.70
2019-04-03T14:51:31.627Z,78.40
2019-04-03T14:54:02.004Z,77.80
2019-04-03T14:56:33.231Z,77.40
2019-04-03T14:59:03.616Z,78.30
2019-04-03T15:01:33.566Z,78.40
2019-04-03T15:04:03.116Z,77.90
2019-04-03T15:06:33.899Z,79.00
2019-04-03T15:09:05.681Z,79.10
2019-04-03T15:11:35.838Z,78.10
2019-04-03T15:14:06.293Z,87.00
2019-04-03T15:16:36.417Z,92.20
2019-04-03T15:19:06.267Z,90.00
2019-04-03T15:21:36.455Z,92.30
2019-04-03T15:24:06.092Z,92.20
2019-04-03T15:26:36.296Z,90.50
2019-04-03T15:29:10.389Z,88.60
2019-04-03T15:31:40.502Z,92.10
2019-04-03T15:34:10.122Z,92.00
2019-04-03T15:36:46.758Z,91.00
2019-04-03T15:39:41.009Z,90.30
2019-04-03T15:42:38.895Z,88.20
2019-04-03T15:45:08.905Z,90.90
2019-04-03T15:47:44.803Z,87.90
2019-04-03T15:50:10.867Z,89.00
2019-04-03T15:52:43.138Z,93.00
2019-04-03T15:55:11.851Z,91.20
2019-04-03T15:57:42.368Z,91.10
2019-04-03T16:00:14.929Z,92.10
2019-04-03T16:02:46.278Z,86.70
2019-04-03T16:05:16.654Z,86.30
2019-04-03T16:07:46.307Z,90.00
2019-04-03T16:10:16.271Z,91.50
2019-04-03T16:12:46.556Z,85.50
2019-04-03T16:15:16.899Z,83.50
2019-04-03T16:17:47.410Z,85.40
2019-04-03T16:20:17.861Z,91.00
2019-04-03T16:22:48.258Z,86.80
2019-04-03T16:25:18.456Z,85.50
2019-04-03T16:27:48.111Z,87.30
2019-04-03T16:30:19.330Z,89.60
2019-04-03T16:32:49.651Z,90.20
2019-04-03T16:35:19.673Z,90.60
2019-04-03T16:37:50.618Z,85.20
2019-04-03T16:40:20.755Z,82.30
2019-04-03T16:42:52.949Z,81.50
2019-04-03T16:45:22.019Z,80.70
2019-04-03T16:47:51.912Z,80.40
2019-04-03T16:50:21.693Z,80.50
2019-04-03T16:52:51.717Z,80.60
2019-04-03T16:55:22.821Z,80.40
2019-04-03T16:57:54.820Z,80.30
2019-04-03T17:00:26.860Z,80.20
2019-04-03T17:02:57.111Z,80.20
2019-04-03T17:05:26.845Z,80.10
2019-04-03T17:07:57.171Z,80.00
2019-04-03T17:10:27.250Z,80.40
2019-04-03T17:12:58.272Z,80.20
2019-04-03T17:15:32.234Z,80.10
2019-04-03T17:18:02.013Z,80.10
2019-04-03T17:20:32.071Z,80.00
2019-04-03T17:23:01.839Z,79.80
2019-04-03T17:25:43.932Z,80.40
2019-04-03T17:28:07.500Z,79.80
2019-04-03T17:30:34.416Z,80.00
2019-04-03T17:33:05.897Z,80.10
2019-04-03T17:35:36.444Z,80.00
2019-04-03T17:38:06.742Z,80.10
2019-04-03T17:40:37.303Z,80.30
2019-04-03T17:43:06.977Z,80.10
2019-04-03T17:45:36.779Z,80.50
2019-04-03T17:48:09.258Z,80.20
2019-04-03T17:50:39.052Z,80.30
2019-04-03T17:53:08.850Z,80.30
2019-04-03T17:55:48.405Z,80.50
2019-04-03T17:58:18.336Z,80.40
2019-04-03T18:00:51.680Z,80.20
2019-04-03T18:03:20.073Z,80.20
2019-04-03T18:05:50.022Z,80.30
2019-04-03T18:08:20.686Z,80.50
2019-04-03T18:10:50.532Z,90.40
2019-04-03T18:13:23.187Z,86.80
2019-04-03T18:15:52.747Z,83.50
2019-04-03T18:18:23.262Z,81.90
2019-04-03T18:20:53.221Z,81.70
2019-04-03T18:23:23.087Z,81.40
2019-04-03T18:25:53.130Z,81.10
2019-04-03T18:28:23.162Z,83.90
2019-04-03T18:30:54.282Z,81.70
2019-04-03T18:33:24.340Z,85.30
2019-04-03T18:35:56.754Z,84.40
2019-04-03T18:38:27.788Z,86.70
2019-04-03T18:40:58.023Z,88.80
2019-04-03T18:43:29.286Z,84.30
2019-04-03T18:46:00.456Z,82.80
2019-04-03T18:48:30.630Z,81.90
2019-04-03T18:51:00.369Z,81.50
2019-04-03T18:53:30.338Z,81.70
2019-04-03T18:56:00.349Z,81.30
2019-04-03T18:58:30.295Z,82.10
2019-04-03T19:01:01.782Z,93.10
2019-04-03T19:03:32.662Z,97.30
2019-04-03T19:06:03.333Z,96.80
2019-04-03T19:08:33.377Z,89.80
2019-04-03T19:11:08.865Z,85.20
2019-04-03T19:14:26.607Z,86.20
2019-04-03T19:16:51.786Z,83.50
2019-04-03T19:19:22.861Z,83.90
2019-04-03T19:21:51.073Z,83.40
2019-04-03T19:24:20.866Z,85.80
2019-04-03T19:26:50.943Z,83.60
2019-04-03T19:29:21.066Z,82.60
2019-04-03T19:31:51.160Z,82.30
2019-04-03T19:34:21.537Z,81.90
2019-04-03T19:36:51.076Z,81.80
2019-04-03T19:39:20.754Z,85.70
2019-04-03T19:41:51.948Z,93.20
2019-04-03T19:44:23.907Z,88.00
2019-04-03T19:46:54.435Z,84.00
2019-04-03T19:49:27.452Z,86.60
2019-04-03T19:51:57.724Z,94.20
2019-04-03T19:54:27.427Z,97.30
2019-04-03T19:57:00.881Z,97.20
2019-04-03T19:59:34.333Z,97.60
2019-04-03T20:02:01.986Z,93.80
2019-04-03T20:04:32.270Z,93.70
2019-04-03T20:07:02.055Z,96.00
2019-04-03T20:09:33.054Z,94.70
2019-04-03T20:12:02.877Z,97.40
2019-04-03T20:14:33.087Z,97.00
2019-04-03T20:17:02.832Z,93.10
2019-04-03T20:19:32.405Z,90.00
2019-04-03T20:22:02.165Z,87.30
2019-04-03T20:24:31.759Z,86.20
2019-04-03T20:27:01.672Z,84.70
2019-04-03T20:29:31.866Z,84.20
2019-04-03T20:32:01.937Z,83.80
2019-04-03T20:34:31.530Z,83.70
2019-04-03T20:37:01.094Z,83.30
2019-04-03T20:39:33.737Z,87.40
2019-04-03T20:42:07.376Z,87.50
2019-04-03T20:44:38.669Z,84.60
2019-04-03T20:47:07.099Z,83.60
2019-04-03T20:49:36.698Z,91.00
2019-04-03T20:52:06.321Z,97.50
2019-04-03T20:54:36.037Z,99.00
2019-04-03T20:57:05.542Z,97.60
2019-04-03T20:59:35.068Z,92.80
2019-04-03T21:02:06.157Z,88.50
2019-04-03T21:04:35.668Z,85.60
2019-04-03T21:07:05.230Z,87.00
2019-04-03T21:09:34.840Z,84.70
2019-04-03T21:12:05.098Z,86.10
2019-04-03T21:14:35.212Z,86.40
2019-04-03T21:17:04.613Z,86.40
2019-04-03T21:19:36.329Z,85.00
2019-04-03T21:22:05.938Z,90.30
2019-04-03T21:24:35.443Z,90.40
2019-04-03T21:27:04.978Z,87.30
2019-04-03T21:29:34.421Z,87.30
2019-04-03T21:32:04.366Z,86.20
2019-04-03T21:34:33.966Z,87.00
2019-04-03T21:37:03.493Z,86.20
2019-04-03T21:39:33.865Z,88.20
2019-04-03T21:42:03.695Z,89.30
2019-04-03T21:44:33.559Z,87.40
2019-04-03T21:47:03.150Z,87.60
2019-04-03T21:49:32.557Z,87.80
2019-04-03T21:52:03.268Z,85.70
2019-04-03T21:54:32.786Z,91.70
2019-04-03T21:57:06.282Z,95.20
2019-04-03T21:59:33.806Z,90.70
2019-04-03T22:02:03.755Z,87.80
2019-04-03T22:04:33.382Z,86.50
2019-04-03T22:07:03.035Z,85.60
2019-04-03T22:09:32.644Z,85.10
2019-04-03T22:12:05.679Z,84.70
2019-04-03T22:14:33.519Z,84.30
2019-04-03T22:17:03.143Z,84.00
2019-04-03T22:19:32.766Z,84.00
2019-04-03T22:22:03.048Z,83.80
2019-04-03T22:24:33.487Z,88.40
2019-04-03T22:27:03.521Z,88.80
2019-04-03T22:29:33.080Z,86.80
2019-04-03T22:32:02.628Z,85.60
2019-04-03T22:34:32.241Z,84.80
2019-04-03T22:37:03.891Z,84.40
2019-04-03T22:39:33.240Z,84.60
2019-04-03T22:42:02.735Z,84.40
2019-04-03T22:44:32.239Z,84.30
2019-04-03T22:47:01.914Z,84.40
2019-04-03T22:49:33.656Z,84.10
2019-04-03T22:52:02.561Z,84.10
2019-04-03T22:54:32.268Z,83.70
2019-04-03T22:57:01.878Z,83.80
2019-04-03T22:59:31.566Z,84.00
2019-04-03T23:02:16.978Z,83.80
2019-04-03T23:05:21.652Z,83.80
2019-04-03T23:08:28.070Z,83.70
2019-04-03T23:11:27.030Z,93.70
2019-04-03T23:14:15.945Z,96.00
2019-04-03T23:20:24.078Z,91.70
2019-04-03T23:23:21.514Z,91.30
2019-04-03T23:26:00.781Z,87.50
2019-04-03T23:29:05.827Z,90.10
2019-04-03T23:32:32.439Z,96.10
2019-04-03T23:35:10.462Z,96.70
2019-04-03T23:38:03.204Z,94.20
2019-04-03T23:44:29.737Z,88.40
2019-04-03T23:47:19.057Z,86.70
2019-04-03T23:50:05.620Z,85.70
2019-04-03T23:53:01.053Z,85.10
2019-04-03T23:56:11.241Z,84.90
2019-04-03T23:59:12.783Z,84.90
